Time,TemperatureF,DewpointF,PressureIn,WindDirection,WindDirectionDegrees,WindSpeedMPH,WindSpeedGustMPH,Humidity,HourlyPrecipIn,Conditions,Clouds,dailyrainin,SoftwareType,DateUTC
2013-09-23 00:00:00,59.1,56.8,29.92,NW,315,0.0,0.0,92,0.00,,,0.00,Wunderground v.1.15,2013-09-23 04:00:00,
2013-09-23 00:05:00,59.0,56.7,29.92,NW,315,0.0,0.0,92,0.00,,,0.00,Wunderground v.1.15,2013-09-23 04:05:00,
2013-09-23 00:10:00,58.9,56.6,29.92,NW,315,0.0,0.0,92,0.00,,,0.00,Wunderground v.1.15,2013-09-23 04:10:00,
2013-09-23 00:15:00,58.8,56.5,29.93,NW,315,0.0,0.0,92,0.00,,,0.00,Wunderground v.1.15,2013-09-23 04:15:00,
2013-09-23 00:20:00,58.7,56.4,29.93,NW,315,0.0,0.0,92,0.00,,,0.00,Wunderground v.1.15,2013-09-23 04:20:00,
2013-09-23 00:25:00,58.7,56.7,29.93,NW,315,0.0,0.0,93,0.00,,,0.00,Wunderground v.1.15,2013-09-23 04:25:00,
2013-09-23 00:30:00,58.6,56.6,29.93,NW,315,0.0,0.0,93,0.00,,,0.00,Wunderground v.1.15,2013-09-23 04:30:00,
2013-09-23 00:35:00,58.6,56.6,29.93,NW,315,0.0,0.0,93,0.00,,,0.00,Wunderground v.1.15,2013-09-23 04:35:00,
2013-09-23 00:40:00,58.5,56.5,29.93,NW,315,0.0,0.0,93,0.00,,,0.00,Wunderground v.1.15,2013-09-23 04:40:00,
2013-09-23 00:45:00,58.4,56.4,29.93,NW,315,0.0,0.0,93,0.00,,,0.00,Wunderground v.1.15,2013-09-23 04:45:00,
2013-09-23 00:50:00,58.3,56.3,29.93,NW,315,0.0,0.0,93,0.00,,,0.00,Wunderground v.1.15,2013-09-23 04:50:00,
2013-09-23 01:00:00,58.2,56.5,29.93,NW,315,0.0,0.0,94,0.00,,,0.00,Wunderground v.1.15,2013-09-23 05:00:00,
2013-09-23 01:10:00,58.0,56.3,29.94,NW,315,0.0,0.0,94,0.00,,,0.00,Wunderground v.1.15,2013-09-23 05:10:00,
2013-09-23 01:15:00,57.9,56.2,29.94,NW,315,0.0,0.0,94,0.00,,,0.00,Wunderground v.1.15,2013-09-23 05:15:00,
2013-09-23 01:25:00,57.8,56.1,29.94,NW,315,0.0,0.0,94,0.00,,,0.00,Wunderground v.1.15,2013-09-23 05:25:00,
2013-09-23 01:30:00,57.8,56.1,29.94,NW,315,0.0,0.0,94,0.00,,,0.00,Wunderground v.1.15,2013-09-23 05:30:00,
2013-09-23 01:35:00,57.8,56.1,29.94,NW,315,0.0,0.0,94,0.00,,,0.00,Wunderground v.1.15,2013-09-23 05:35:00,
2013-09-23 01:40:00,57.8,56.1,29.94,NW,315,0.0,0.0,94,0.00,,,0.00,Wunderground v.1.15,2013-09-23 05:40:00,
2013-09-23 01:45:00,57.9,56.2,29.94,NW,315,0.0,0.0,94,0.00,,,0.00,Wunderground v.1.15,2013-09-23 05:45:00,
2013-09-23 01:50:00,58.0,56.3,29.95,NW,315,0.0,0.0,94,0.00,,,0.00,Wunderground v.1.15,2013-09-23 05:50:00,
2013-09-23 01:55:00,58.1,56.4,29.95,NW,315,0.0,0.0,94,0.00,,,0.00,Wunderground v.1.15,2013-09-23 05:55:00,
2013-09-23 02:05:00,58.2,56.5,29.95,NW,315,0.0,0.0,94,0.00,,,0.00,Wunderground v.1.15,2013-09-23 06:05:00,
2013-09-23 02:10:00,58.2,56.5,29.95,NW,315,0.0,0.0,94,0.00,,,0.00,Wunderground v.1.15,2013-09-23 06:10:00,
2013-09-23 02:15:00,58.2,56.5,29.95,NW,315,0.0,0.0,94,0.00,,,0.00,Wunderground v.1.15,2013-09-23 06:15:00,
2013-09-23 02:20:00,58.3,56.6,29.96,NW,315,0.0,0.0,94,0.00,,,0.00,Wunderground v.1.15,2013-09-23 06:20:00,
2013-09-23 02:25:00,58.4,56.7,29.96,NW,315,0.0,0.0,94,0.00,,,0.00,Wunderground v.1.15,2013-09-23 06:25:00,
2013-09-23 02:30:00,58.5,56.8,29.96,NW,315,0.0,0.0,94,0.00,,,0.00,Wunderground v.1.15,2013-09-23 06:30:00,
2013-09-23 02:40:00,58.6,56.6,29.96,NW,315,0.0,0.0,93,0.00,,,0.00,Wunderground v.1.15,2013-09-23 06:40:00,
2013-09-23 02:45:00,58.7,56.7,29.96,NW,315,0.0,0.0,93,0.00,,,0.00,Wunderground v.1.15,2013-09-23 06:45:00,
2013-09-23 02:50:00,58.9,56.6,29.96,NW,317,0.0,0.0,92,0.00,,,0.00,Wunderground v.1.15,2013-09-23 06:50:00,
2013-09-23 02:55:00,59.0,56.7,29.96,NW,315,0.0,0.0,92,0.00,,,0.00,Wunderground v.1.15,2013-09-23 06:55:00,
2013-09-23 03:00:00,59.1,56.5,29.96,NW,318,0.0,0.0,91,0.00,,,0.00,Wunderground v.1.15,2013-09-23 07:00:00,
2013-09-23 03:10:00,59.0,56.1,29.95,NW,315,0.0,0.0,90,0.00,,,0.00,Wunderground v.1.15,2013-09-23 07:10:00,
2013-09-23 03:15:00,58.9,56.0,29.96,NW,322,0.0,0.0,90,0.00,,,0.00,Wunderground v.1.15,2013-09-23 07:15:00,
2013-09-23 03:20:00,58.7,55.8,29.96,NW,319,0.0,0.0,90,0.00,,,0.00,Wunderground v.1.15,2013-09-23 07:20:00,
2013-09-23 03:25:00,58.7,55.5,29.96,WNW,298,0.0,0.0,89,0.00,,,0.00,Wunderground v.1.15,2013-09-23 07:25:00,
2013-09-23 03:30:00,58.6,55.4,29.96,WNW,298,0.0,0.0,89,0.00,,,0.00,Wunderground v.1.15,2013-09-23 07:30:00,
2013-09-23 03:35:00,58.5,55.0,29.96,WNW,298,0.0,0.0,88,0.00,,,0.00,Wunderground v.1.15,2013-09-23 07:35:00,
2013-09-23 03:40:00,58.4,55.2,29.96,WNW,298,0.0,0.0,89,0.00,,,0.00,Wunderground v.1.15,2013-09-23 07:40:00,
2013-09-23 03:45:00,58.2,54.7,29.96,WNW,299,0.0,0.0,88,0.00,,,0.00,Wunderground v.1.15,2013-09-23 07:45:00,
2013-09-23 03:55:00,58.0,54.5,29.96,NW,304,0.0,0.0,88,0.00,,,0.00,Wunderground v.1.15,2013-09-23 07:55:00,
2013-09-23 04:00:00,57.8,54.3,29.97,NW,305,0.0,0.0,88,0.00,,,0.00,Wunderground v.1.15,2013-09-23 08:00:00,
2013-09-23 04:10:00,57.6,54.1,29.97,NW,321,0.0,0.0,88,0.00,,,0.00,Wunderground v.1.15,2013-09-23 08:10:00,
2013-09-23 04:15:00,57.5,54.0,29.97,NNW,329,0.0,0.0,88,0.00,,,0.00,Wunderground v.1.15,2013-09-23 08:15:00,
2013-09-23 04:20:00,57.3,53.8,29.97,NW,313,0.0,0.0,88,0.00,,,0.00,Wunderground v.1.15,2013-09-23 08:20:00,
2013-09-23 04:30:00,57.2,53.7,29.97,NW,315,0.0,0.0,88,0.00,,,0.00,Wunderground v.1.15,2013-09-23 08:30:00,
2013-09-23 04:35:00,57.1,53.3,29.97,NW,315,0.0,0.0,87,0.00,,,0.00,Wunderground v.1.15,2013-09-23 08:35:00,
2013-09-23 04:40:00,57.0,53.2,29.97,NW,317,0.0,0.0,87,0.00,,,0.00,Wunderground v.1.15,2013-09-23 08:40:00,
2013-09-23 04:45:00,57.0,53.2,29.97,NW,323,0.0,0.0,87,0.00,,,0.00,Wunderground v.1.15,2013-09-23 08:45:00,
2013-09-23 04:50:00,56.9,53.1,29.98,NW,323,0.0,0.0,87,0.00,,,0.00,Wunderground v.1.15,2013-09-23 08:50:00,
2013-09-23 04:55:00,56.8,53.0,29.98,NW,317,1.0,1.0,87,0.00,,,0.00,Wunderground v.1.15,2013-09-23 08:55:00,
2013-09-23 05:05:00,56.6,52.5,29.98,NW,310,0.0,1.0,86,0.00,,,0.00,Wunderground v.1.15,2013-09-23 09:05:00,
2013-09-23 05:10:00,56.6,52.8,29.98,NW,306,0.0,0.0,87,0.00,,,0.00,Wunderground v.1.15,2013-09-23 09:10:00,
2013-09-23 05:15:00,56.4,52.6,29.98,NW,307,0.0,0.0,87,0.00,,,0.00,Wunderground v.1.15,2013-09-23 09:15:00,
2013-09-23 05:20:00,56.2,52.4,29.98,NW,307,0.0,0.0,87,0.00,,,0.00,Wunderground v.1.15,2013-09-23 09:20:00,
2013-09-23 05:25:00,56.1,52.3,29.98,NW,309,0.0,0.0,87,0.00,,,0.00,Wunderground v.1.15,2013-09-23 09:25:00,
2013-09-23 05:30:00,56.0,52.2,29.98,NW,309,0.0,0.0,87,0.00,,,0.00,Wunderground v.1.15,2013-09-23 09:30:00,
2013-09-23 05:40:00,55.8,52.0,29.99,NW,308,0.0,0.0,87,0.00,,,0.00,Wunderground v.1.15,2013-09-23 09:40:00,
2013-09-23 05:45:00,55.7,51.9,29.99,NW,308,0.0,0.0,87,0.00,,,0.00,Wunderground v.1.15,2013-09-23 09:45:00,
2013-09-23 05:50:00,55.6,51.8,29.99,NW,308,0.0,0.0,87,0.00,,,0.00,Wunderground v.1.15,2013-09-23 09:50:00,
2013-09-23 05:55:00,55.5,51.7,29.99,NW,315,0.0,0.0,87,0.00,,,0.00,Wunderground v.1.15,2013-09-23 09:55:00,
2013-09-23 06:00:00,55.4,51.6,30.00,NW,315,0.0,0.0,87,0.00,,,0.00,Wunderground v.1.15,2013-09-23 10:00:00,
2013-09-23 06:10:00,55.2,51.4,30.00,NW,315,0.0,0.0,87,0.00,,,0.00,Wunderground v.1.15,2013-09-23 10:10:00,
2013-09-23 06:20:00,55.1,51.6,30.01,NW,325,1.0,1.0,88,0.00,,,0.00,Wunderground v.1.15,2013-09-23 10:20:00,
2013-09-23 06:25:00,55.1,51.6,30.01,NW,325,1.0,1.0,88,0.00,,,0.00,Wunderground v.1.15,2013-09-23 10:25:00,
2013-09-23 06:30:00,55.0,51.5,30.01,NW,325,0.0,1.0,88,0.00,,,0.00,Wunderground v.1.15,2013-09-23 10:30:00,
2013-09-23 06:35:00,54.9,51.4,30.02,NW,323,0.0,1.0,88,0.00,,,0.00,Wunderground v.1.15,2013-09-23 10:35:00,
2013-09-23 06:40:00,54.9,51.4,30.02,NW,323,0.0,0.0,88,0.00,,,0.00,Wunderground v.1.15,2013-09-23 10:40:00,
2013-09-23 06:45:00,54.9,51.1,30.02,NW,323,0.0,1.0,87,0.00,,,0.00,Wunderground v.1.15,2013-09-23 10:45:00,
2013-09-23 06:50:00,54.9,51.1,30.02,NW,323,0.0,0.0,87,0.00,,,0.00,Wunderground v.1.15,2013-09-23 10:50:00,
2013-09-23 07:00:00,54.8,51.0,30.03,NW,323,0.0,0.0,87,0.00,,,0.00,Wunderground v.1.15,2013-09-23 11:00:00,
2013-09-23 07:10:00,54.7,50.9,30.03,NW,323,0.0,0.0,87,0.00,,,0.00,Wunderground v.1.15,2013-09-23 11:10:00,
2013-09-23 07:15:00,54.6,50.8,30.03,NW,323,0.0,0.0,87,0.00,,,0.00,Wunderground v.1.15,2013-09-23 11:15:00,
2013-09-23 07:20:00,54.5,51.0,30.03,NW,323,0.0,0.0,88,0.00,,,0.00,Wunderground v.1.15,2013-09-23 11:20:00,
2013-09-23 07:25:00,54.5,51.0,30.03,NW,323,0.0,0.0,88,0.00,,,0.00,Wunderground v.1.15,2013-09-23 11:25:00,
2013-09-23 07:30:00,54.3,50.8,30.04,NW,323,0.0,0.0,88,0.00,,,0.00,Wunderground v.1.15,2013-09-23 11:30:00,
2013-09-23 07:40:00,54.3,51.1,30.04,NW,323,0.0,0.0,89,0.00,,,0.00,Wunderground v.1.15,2013-09-23 11:40:00,
2013-09-23 07:45:00,54.4,51.2,30.04,NW,323,0.0,0.0,89,0.00,,,0.00,Wunderground v.1.15,2013-09-23 11:45:00,
2013-09-23 07:50:00,54.5,51.3,30.04,NW,323,0.0,0.0,89,0.00,,,0.00,Wunderground v.1.15,2013-09-23 11:50:00,
2013-09-23 07:55:00,54.6,51.4,30.04,NW,323,0.0,0.0,89,0.00,,,0.00,Wunderground v.1.15,2013-09-23 11:55:00,
2013-09-23 08:05:00,55.0,51.5,30.04,NW,323,0.0,0.0,88,0.00,,,0.00,Wunderground v.1.15,2013-09-23 12:05:00,
2013-09-23 08:10:00,55.3,51.8,30.05,NW,323,0.0,0.0,88,0.00,,,0.00,Wunderground v.1.15,2013-09-23 12:10:00,
2013-09-23 08:15:00,55.7,51.9,30.05,NNW,327,0.0,0.0,87,0.00,,,0.00,Wunderground v.1.15,2013-09-23 12:15:00,
2013-09-23 08:20:00,56.2,52.1,30.05,NW,326,0.0,1.0,86,0.00,,,0.00,Wunderground v.1.15,2013-09-23 12:20:00,
2013-09-23 08:25:00,56.9,52.4,30.05,ENE,64,0.0,1.0,85,0.00,,,0.00,Wunderground v.1.15,2013-09-23 12:25:00,
2013-09-23 08:30:00,57.4,52.3,30.05,ENE,64,0.0,0.0,83,0.00,,,0.00,Wunderground v.1.15,2013-09-23 12:30:00,
2013-09-23 08:40:00,58.4,52.9,30.06,ENE,59,0.0,0.0,82,0.00,,,0.00,Wunderground v.1.15,2013-09-23 12:40:00,
2013-09-23 08:45:00,58.9,52.7,30.06,NNW,344,1.0,1.0,80,0.00,,,0.00,Wunderground v.1.15,2013-09-23 12:45:00,
2013-09-23 08:50:00,59.3,52.8,30.06,ENE,67,0.0,0.0,79,0.00,,,0.00,Wunderground v.1.15,2013-09-23 12:50:00,
2013-09-23 08:55:00,59.8,53.3,30.06,North,9,1.0,1.0,79,0.00,,,0.00,Wunderground v.1.15,2013-09-23 12:55:00,
2013-09-23 09:00:00,60.1,53.2,30.06,ENE,71,1.0,1.0,78,0.00,,,0.00,Wunderground v.1.15,2013-09-23 13:00:00,
2013-09-23 09:10:00,60.4,53.2,30.06,East,96,1.0,1.0,77,0.00,,,0.00,Wunderground v.1.15,2013-09-23 13:10:00,
2013-09-23 09:15:00,60.7,53.1,30.06,NE,46,1.0,4.0,76,0.00,,,0.00,Wunderground v.1.15,2013-09-23 13:15:00,
2013-09-23 09:20:00,60.8,52.5,30.07,WNW,283,1.0,5.0,74,0.00,,,0.00,Wunderground v.1.15,2013-09-23 13:20:00,
2013-09-23 09:25:00,61.0,52.7,30.07,NE,36,2.0,5.0,74,0.00,,,0.00,Wunderground v.1.15,2013-09-23 13:25:00,
2013-09-23 09:30:00,61.6,53.6,30.07,ESE,113,2.0,2.0,75,0.00,,,0.00,Wunderground v.1.15,2013-09-23 13:30:00,
2013-09-23 09:35:00,61.7,52.6,30.07,NNE,13,1.0,2.0,72,0.00,,,0.00,Wunderground v.1.15,2013-09-23 13:35:00,
2013-09-23 09:40:00,61.6,52.9,30.07,ENE,64,2.0,2.0,73,0.00,,,0.00,Wunderground v.1.15,2013-09-23 13:40:00,
2013-09-23 09:45:00,62.0,53.2,30.07,ENE,69,2.0,2.0,73,0.00,,,0.00,Wunderground v.1.15,2013-09-23 13:45:00,
2013-09-23 09:55:00,62.6,52.7,30.08,ENE,72,2.0,2.0,70,0.00,,,0.00,Wunderground v.1.15,2013-09-23 13:55:00,
2013-09-23 10:00:00,62.8,52.9,30.08,SW,227,2.0,2.0,70,0.00,,,0.00,Wunderground v.1.15,2013-09-23 14:00:00,
2013-09-23 10:10:00,63.0,52.7,30.08,SE,139,2.0,2.0,69,0.00,,,0.00,Wunderground v.1.15,2013-09-23 14:10:00,
2013-09-23 10:15:00,63.5,55.1,30.07,North,5,2.0,2.0,74,0.00,,,0.00,Wunderground v.1.15,2013-09-23 14:15:00,
2013-09-23 10:25:00,64.0,53.2,30.08,ENE,57,2.0,10.0,68,0.00,,,0.00,Wunderground v.1.15,2013-09-23 14:25:00,
2013-09-23 10:30:00,64.1,53.3,30.08,ENE,57,2.0,2.0,68,0.00,,,0.00,Wunderground v.1.15,2013-09-23 14:30:00,
2013-09-23 10:35:00,64.3,53.1,30.08,WNW,290,2.0,2.0,67,0.00,,,0.00,Wunderground v.1.15,2013-09-23 14:35:00,
2013-09-23 10:40:00,65.0,54.6,30.08,NNE,30,1.0,5.0,69,0.00,,,0.00,Wunderground v.1.15,2013-09-23 14:40:00,
2013-09-23 10:45:00,64.9,54.1,30.08,ENE,63,1.0,5.0,68,0.00,,,0.00,Wunderground v.1.15,2013-09-23 14:45:00,
2013-09-23 10:50:00,64.8,53.6,30.08,North,5,2.0,4.0,67,0.00,,,0.00,Wunderground v.1.15,2013-09-23 14:50:00,
2013-09-23 10:55:00,64.9,55.3,30.08,NNW,336,2.0,4.0,71,0.00,,,0.00,Wunderground v.1.15,2013-09-23 14:55:00,
2013-09-23 11:05:00,66.1,55.6,30.08,North,5,0.0,1.0,69,0.00,,,0.00,Wunderground v.1.15,2013-09-23 15:05:00,
2013-09-23 11:10:00,66.0,54.3,30.08,NW,305,1.0,5.0,66,0.00,,,0.00,Wunderground v.1.15,2013-09-23 15:10:00,
2013-09-23 11:15:00,65.9,54.2,30.08,NNW,341,1.0,5.0,66,0.00,,,0.00,Wunderground v.1.15,2013-09-23 15:15:00,
2013-09-23 11:20:00,66.4,54.7,30.08,NW,306,1.0,2.0,66,0.00,,,0.00,Wunderground v.1.15,2013-09-23 15:20:00,
2013-09-23 11:25:00,66.4,55.5,30.08,NNW,329,1.0,2.0,68,0.00,,,0.00,Wunderground v.1.15,2013-09-23 15:25:00,
2013-09-23 11:30:00,66.3,54.6,30.08,NE,38,1.0,1.0,66,0.00,,,0.00,Wunderground v.1.15,2013-09-23 15:30:00,
2013-09-23 11:40:00,66.9,54.3,30.08,NNW,346,0.0,0.0,64,0.00,,,0.00,Wunderground v.1.15,2013-09-23 15:40:00,
2013-09-23 11:45:00,66.5,54.8,30.08,SE,141,1.0,1.0,66,0.00,,,0.00,Wunderground v.1.15,2013-09-23 15:45:00,
2013-09-23 11:50:00,66.8,54.7,30.08,NNW,329,1.0,1.0,65,0.00,,,0.00,Wunderground v.1.15,2013-09-23 15:50:00,
2013-09-23 11:55:00,66.9,54.3,30.08,NE,42,1.0,4.0,64,0.00,,,0.00,Wunderground v.1.15,2013-09-23 15:55:00,
2013-09-23 12:00:00,67.4,57.3,30.09,NNW,336,1.0,1.0,70,0.00,,,0.00,Wunderground v.1.15,2013-09-23 16:00:00,
2013-09-23 12:10:00,67.5,54.5,30.09,North,360,1.0,2.0,63,0.00,,,0.00,Wunderground v.1.15,2013-09-23 16:10:00,
2013-09-23 12:15:00,67.1,54.5,30.08,WNW,300,2.0,2.0,64,0.00,,,0.00,Wunderground v.1.15,2013-09-23 16:15:00,
2013-09-23 12:20:00,66.7,54.1,30.08,NW,305,4.0,7.0,64,0.00,,,0.00,Wunderground v.1.15,2013-09-23 16:20:00,
2013-09-23 12:25:00,66.7,55.0,30.08,WNW,302,5.0,7.0,66,0.00,,,0.00,Wunderground v.1.15,2013-09-23 16:25:00,
2013-09-23 12:30:00,67.1,54.1,30.08,NNW,335,3.0,5.0,63,0.00,,,0.00,Wunderground v.1.15,2013-09-23 16:30:00,
2013-09-23 12:35:00,67.7,55.1,30.08,ENE,78,3.0,5.0,64,0.00,,,0.00,Wunderground v.1.15,2013-09-23 16:35:00,
2013-09-23 12:40:00,68.2,54.7,30.08,ENE,74,2.0,2.0,62,0.00,,,0.00,Wunderground v.1.15,2013-09-23 16:40:00,
2013-09-23 12:50:00,67.5,56.2,30.08,NNW,346,1.0,1.0,67,0.00,,,0.00,Wunderground v.1.15,2013-09-23 16:50:00,
2013-09-23 13:00:00,68.9,56.6,30.08,WNW,298,1.0,1.0,65,0.00,,,0.00,Wunderground v.1.15,2013-09-23 17:00:00,
2013-09-23 13:10:00,68.2,55.1,30.07,North,5,1.0,2.0,63,0.00,,,0.00,Wunderground v.1.15,2013-09-23 17:10:00,
2013-09-23 13:15:00,68.5,55.4,30.07,NNE,20,1.0,2.0,63,0.00,,,0.00,Wunderground v.1.15,2013-09-23 17:15:00,
2013-09-23 13:25:00,68.9,56.2,30.07,WNW,300,1.0,9.0,64,0.00,,,0.00,Wunderground v.1.15,2013-09-23 17:25:00,
2013-09-23 13:35:00,69.5,56.3,30.07,NE,38,2.0,2.0,63,0.00,,,0.00,Wunderground v.1.15,2013-09-23 17:35:00,
2013-09-23 13:40:00,69.1,54.2,30.07,North,355,1.0,1.0,59,0.00,,,0.00,Wunderground v.1.15,2013-09-23 17:40:00,
2013-09-23 13:45:00,69.2,56.5,30.07,West,268,2.0,2.0,64,0.00,,,0.00,Wunderground v.1.15,2013-09-23 17:45:00,
2013-09-23 13:50:00,69.2,57.8,30.07,West,270,2.0,2.0,67,0.00,,,0.00,Wunderground v.1.15,2013-09-23 17:50:00,
2013-09-23 14:00:00,69.4,56.3,30.06,West,271,0.0,0.0,63,0.00,,,0.00,Wunderground v.1.15,2013-09-23 18:00:00,
2013-09-23 14:10:00,69.5,55.9,30.07,WNW,288,1.0,1.0,62,0.00,,,0.00,Wunderground v.1.15,2013-09-23 18:10:00,
2013-09-23 14:15:00,68.8,57.0,30.06,WNW,288,1.0,1.0,66,0.00,,,0.00,Wunderground v.1.15,2013-09-23 18:15:00,
2013-09-23 14:20:00,69.4,57.5,30.06,WNW,288,1.0,1.0,66,0.00,,,0.00,Wunderground v.1.15,2013-09-23 18:20:00,
2013-09-23 14:25:00,70.1,56.0,30.06,NW,310,1.0,4.0,61,0.00,,,0.00,Wunderground v.1.15,2013-09-23 18:25:00,
2013-09-23 14:35:00,69.8,55.3,30.06,NW,310,1.0,4.0,60,0.00,,,0.00,Wunderground v.1.15,2013-09-23 18:35:00,
2013-09-23 14:40:00,69.8,56.6,30.06,NW,315,1.0,1.0,63,0.00,,,0.00,Wunderground v.1.15,2013-09-23 18:40:00,
2013-09-23 14:45:00,69.8,55.7,30.06,NW,316,1.0,1.0,61,0.00,,,0.00,Wunderground v.1.15,2013-09-23 18:45:00,
2013-09-23 14:50:00,69.8,56.2,30.06,NW,313,1.0,1.0,62,0.00,,,0.00,Wunderground v.1.15,2013-09-23 18:50:00,
2013-09-23 14:55:00,69.5,57.2,30.06,NW,313,1.0,1.0,65,0.00,,,0.00,Wunderground v.1.15,2013-09-23 18:55:00,
2013-09-23 15:00:00,69.6,57.3,30.06,NW,313,0.0,0.0,65,0.00,,,0.00,Wunderground v.1.15,2013-09-23 19:00:00,
2013-09-23 15:10:00,69.7,57.4,30.05,NW,313,0.0,0.0,65,0.00,,,0.00,Wunderground v.1.15,2013-09-23 19:10:00,
2013-09-23 15:15:00,69.8,56.6,30.05,NW,313,0.0,1.0,63,0.00,,,0.00,Wunderground v.1.15,2013-09-23 19:15:00,
2013-09-23 15:20:00,70.1,56.0,30.05,NW,312,0.0,0.0,61,0.00,,,0.00,Wunderground v.1.15,2013-09-23 19:20:00,
2013-09-23 15:25:00,70.4,55.8,30.05,NNW,338,1.0,1.0,60,0.00,,,0.00,Wunderground v.1.15,2013-09-23 19:25:00,
2013-09-23 15:30:00,69.9,55.8,30.05,NNW,340,1.0,1.0,61,0.00,,,0.00,Wunderground v.1.15,2013-09-23 19:30:00,
2013-09-23 15:35:00,69.6,56.9,30.05,NNW,340,0.0,1.0,64,0.00,,,0.00,Wunderground v.1.15,2013-09-23 19:35:00,
2013-09-23 15:45:00,69.2,57.8,30.05,NNW,340,0.0,0.0,67,0.00,,,0.00,Wunderground v.1.15,2013-09-23 19:45:00,
2013-09-23 15:55:00,69.5,56.3,30.05,NNW,340,0.0,0.0,63,0.00,,,0.00,Wunderground v.1.15,2013-09-23 19:55:00,
2013-09-23 16:00:00,70.3,56.2,30.05,NE,40,1.0,2.0,61,0.00,,,0.00,Wunderground v.1.15,2013-09-23 20:00:00,
2013-09-23 16:10:00,70.7,57.0,30.05,NE,42,0.0,1.0,62,0.00,,,0.00,Wunderground v.1.15,2013-09-23 20:10:00,
2013-09-23 16:20:00,71.1,56.5,30.05,NE,51,1.0,1.0,60,0.00,,,0.00,Wunderground v.1.15,2013-09-23 20:20:00,
2013-09-23 16:30:00,71.5,57.3,30.05,WNW,284,2.0,2.0,61,0.00,,,0.00,Wunderground v.1.15,2013-09-23 20:30:00,
2013-09-23 16:35:00,71.4,56.3,30.05,WNW,290,3.0,3.0,59,0.00,,,0.00,Wunderground v.1.15,2013-09-23 20:35:00,
2013-09-23 16:40:00,70.7,56.1,30.05,WNW,290,3.0,4.0,60,0.00,,,0.00,Wunderground v.1.15,2013-09-23 20:40:00,
2013-09-23 16:50:00,70.5,56.9,30.05,West,277,2.0,4.0,62,0.00,,,0.00,Wunderground v.1.15,2013-09-23 20:50:00,
2013-09-23 16:55:00,69.9,56.3,30.05,North,9,1.0,4.0,62,0.00,,,0.00,Wunderground v.1.15,2013-09-23 20:55:00,
2013-09-23 17:00:00,69.5,57.6,30.05,North,5,0.0,0.0,66,0.00,,,0.00,Wunderground v.1.15,2013-09-23 21:00:00,
2013-09-23 17:10:00,69.0,58.0,30.05,North,5,0.0,0.0,68,0.00,,,0.00,Wunderground v.1.15,2013-09-23 21:10:00,
2013-09-23 17:20:00,68.4,57.4,30.05,NNE,23,0.0,0.0,68,0.00,,,0.00,Wunderground v.1.15,2013-09-23 21:20:00,
2013-09-23 17:25:00,68.3,58.9,30.05,NNE,23,0.0,0.0,72,0.00,,,0.00,Wunderground v.1.15,2013-09-23 21:25:00,
2013-09-23 17:30:00,68.3,58.9,30.05,NNE,23,0.0,0.0,72,0.00,,,0.00,Wunderground v.1.15,2013-09-23 21:30:00,
2013-09-23 17:35:00,67.9,58.9,30.05,NNE,23,0.0,0.0,73,0.00,,,0.00,Wunderground v.1.15,2013-09-23 21:35:00,
2013-09-23 17:40:00,67.4,58.8,30.05,NNE,23,0.0,0.0,74,0.00,,,0.00,Wunderground v.1.15,2013-09-23 21:40:00,
2013-09-23 17:45:00,66.7,58.5,30.05,ENE,74,0.0,0.0,75,0.00,,,0.00,Wunderground v.1.15,2013-09-23 21:45:00,
2013-09-23 17:50:00,66.2,58.8,30.05,NNE,28,0.0,0.0,77,0.00,,,0.00,Wunderground v.1.15,2013-09-23 21:50:00,
2013-09-23 18:00:00,65.4,58.7,30.05,NNE,28,0.0,0.0,79,0.00,,,0.00,Wunderground v.1.15,2013-09-23 22:00:00,
2013-09-23 18:10:00,65.7,58.7,30.05,NNE,28,0.0,0.0,78,0.00,,,0.00,Wunderground v.1.15,2013-09-23 22:10:00,
2013-09-23 18:15:00,65.9,58.8,30.05,NNE,28,0.0,0.0,78,0.00,,,0.00,Wunderground v.1.15,2013-09-23 22:15:00,
2013-09-23 18:20:00,66.1,59.0,30.05,South,179,0.0,0.0,78,0.00,,,0.00,Wunderground v.1.15,2013-09-23 22:20:00,
2013-09-23 18:25:00,66.1,58.3,30.05,SW,217,0.0,0.0,76,0.00,,,0.00,Wunderground v.1.15,2013-09-23 22:25:00,
2013-09-23 18:35:00,65.7,57.9,30.05,ENE,63,0.0,0.0,76,0.00,,,0.00,Wunderground v.1.15,2013-09-23 22:35:00,
2013-09-23 18:40:00,65.3,57.9,30.06,ENE,63,0.0,0.0,77,0.00,,,0.00,Wunderground v.1.15,2013-09-23 22:40:00,
2013-09-23 18:45:00,65.0,58.0,30.06,ENE,63,0.0,0.0,78,0.00,,,0.00,Wunderground v.1.15,2013-09-23 22:45:00,
2013-09-23 18:55:00,64.1,57.5,30.06,ENE,63,0.0,0.0,79,0.00,,,0.00,Wunderground v.1.15,2013-09-23 22:55:00,
2013-09-23 19:00:00,63.7,57.4,30.06,ENE,63,0.0,0.0,80,0.00,,,0.00,Wunderground v.1.15,2013-09-23 23:00:00,
2013-09-23 19:10:00,63.0,57.1,30.06,ENE,63,0.0,0.0,81,0.00,,,0.00,Wunderground v.1.15,2013-09-23 23:10:00,
2013-09-23 19:15:00,62.7,56.8,30.06,ENE,63,0.0,0.0,81,0.00,,,0.00,Wunderground v.1.15,2013-09-23 23:15:00,
2013-09-23 19:20:00,62.3,56.7,30.06,ENE,63,0.0,0.0,82,0.00,,,0.00,Wunderground v.1.15,2013-09-23 23:20:00,
2013-09-23 19:25:00,62.1,56.5,30.06,ENE,63,0.0,0.0,82,0.00,,,0.00,Wunderground v.1.15,2013-09-23 23:25:00,
2013-09-23 19:30:00,61.8,56.2,30.06,ENE,63,0.0,0.0,82,0.00,,,0.00,Wunderground v.1.15,2013-09-23 23:30:00,
2013-09-23 19:35:00,61.5,56.0,30.06,ENE,63,0.0,0.0,82,0.00,,,0.00,Wunderground v.1.15,2013-09-23 23:35:00,
2013-09-23 19:40:00,61.2,55.7,30.06,ENE,63,0.0,0.0,82,0.00,,,0.00,Wunderground v.1.15,2013-09-23 23:40:00,
2013-09-23 19:45:00,61.0,55.8,30.07,ENE,63,0.0,0.0,83,0.00,,,0.00,Wunderground v.1.15,2013-09-23 23:45:00,
2013-09-23 19:50:00,60.9,55.7,30.06,ENE,63,0.0,0.0,83,0.00,,,0.00,Wunderground v.1.15,2013-09-23 23:50:00,
2013-09-23 20:00:00,60.5,55.6,30.07,ENE,63,0.0,0.0,84,0.00,,,0.00,Wunderground v.1.15,2013-09-24 00:00:00,
2013-09-23 20:10:00,60.1,54.9,30.07,ENE,63,0.0,0.0,83,0.00,,,0.00,Wunderground v.1.15,2013-09-24 00:10:00,
2013-09-23 20:15:00,60.0,55.2,30.07,ENE,63,0.0,0.0,84,0.00,,,0.00,Wunderground v.1.15,2013-09-24 00:15:00,
2013-09-23 20:20:00,59.9,55.1,30.07,ENE,63,0.0,0.0,84,0.00,,,0.00,Wunderground v.1.15,2013-09-24 00:20:00,
2013-09-23 20:30:00,59.9,55.7,30.07,ENE,63,0.0,0.0,86,0.00,,,0.00,Wunderground v.1.15,2013-09-24 00:30:00,
2013-09-23 20:35:00,59.7,55.5,30.08,ENE,63,0.0,0.0,86,0.00,,,0.00,Wunderground v.1.15,2013-09-24 00:35:00,
2013-09-23 20:40:00,59.5,55.6,30.08,ENE,63,0.0,0.0,87,0.00,,,0.00,Wunderground v.1.15,2013-09-24 00:40:00,
2013-09-23 20:50:00,59.1,55.2,30.08,ENE,63,0.0,0.0,87,0.00,,,0.00,Wunderground v.1.15,2013-09-24 00:50:00,
2013-09-23 20:55:00,58.9,55.4,30.08,ENE,63,0.0,0.0,88,0.00,,,0.00,Wunderground v.1.15,2013-09-24 00:55:00,
2013-09-23 21:00:00,58.7,55.2,30.08,ENE,63,0.0,0.0,88,0.00,,,0.00,Wunderground v.1.15,2013-09-24 01:00:00,
2013-09-23 21:10:00,58.4,55.2,30.08,ENE,63,0.0,0.0,89,0.00,,,0.00,Wunderground v.1.15,2013-09-24 01:10:00,
2013-09-23 21:15:00,58.2,55.9,30.08,ENE,63,0.0,0.0,92,0.00,,,0.00,Wunderground v.1.15,2013-09-24 01:15:00,
2013-09-23 21:25:00,58.1,55.5,30.08,ENE,63,0.0,0.0,91,0.00,,,0.00,Wunderground v.1.15,2013-09-24 01:25:00,
2013-09-23 21:30:00,58.1,55.8,30.08,ENE,63,0.0,0.0,92,0.00,,,0.00,Wunderground v.1.15,2013-09-24 01:30:00,
2013-09-23 21:35:00,58.0,55.4,30.08,ENE,63,0.0,0.0,91,0.00,,,0.00,Wunderground v.1.15,2013-09-24 01:35:00,
2013-09-23 21:40:00,57.8,55.5,30.08,ENE,63,0.0,0.0,92,0.00,,,0.00,Wunderground v.1.15,2013-09-24 01:40:00,
2013-09-23 21:45:00,57.7,55.4,30.08,ENE,63,0.0,0.0,92,0.00,,,0.00,Wunderground v.1.15,2013-09-24 01:45:00,
2013-09-23 21:50:00,57.6,55.3,30.08,ENE,63,0.0,0.0,92,0.00,,,0.00,Wunderground v.1.15,2013-09-24 01:50:00,
2013-09-23 21:55:00,57.5,55.2,30.08,ENE,63,0.0,0.0,92,0.00,,,0.00,Wunderground v.1.15,2013-09-24 01:55:00,
2013-09-23 22:05:00,57.3,55.3,30.08,ENE,63,0.0,0.0,93,0.00,,,0.00,Wunderground v.1.15,2013-09-24 02:05:00,
2013-09-23 22:10:00,57.1,55.1,30.09,ENE,63,0.0,0.0,93,0.00,,,0.00,Wunderground v.1.15,2013-09-24 02:10:00,
2013-09-23 22:15:00,56.9,54.9,30.09,ENE,63,0.0,0.0,93,0.00,,,0.00,Wunderground v.1.15,2013-09-24 02:15:00,
2013-09-23 22:25:00,56.6,54.6,30.09,ENE,63,0.0,0.0,93,0.00,,,0.00,Wunderground v.1.15,2013-09-24 02:25:00,
2013-09-23 22:30:00,56.5,54.5,30.09,ENE,63,0.0,0.0,93,0.00,,,0.00,Wunderground v.1.15,2013-09-24 02:30:00,
2013-09-23 22:35:00,56.4,54.4,30.09,ENE,63,0.0,0.0,93,0.00,,,0.00,Wunderground v.1.15,2013-09-24 02:35:00,
2013-09-23 22:40:00,56.2,54.5,30.09,ENE,63,0.0,0.0,94,0.00,,,0.00,Wunderground v.1.15,2013-09-24 02:40:00,
2013-09-23 22:45:00,56.0,54.3,30.10,ENE,63,0.0,0.0,94,0.00,,,0.00,Wunderground v.1.15,2013-09-24 02:45:00,
2013-09-23 22:50:00,56.1,54.4,30.10,ENE,63,0.0,0.0,94,0.00,,,0.00,Wunderground v.1.15,2013-09-24 02:50:00,
2013-09-23 22:55:00,56.2,54.5,30.10,ENE,63,0.0,0.0,94,0.00,,,0.00,Wunderground v.1.15,2013-09-24 02:55:00,
2013-09-23 23:05:00,56.2,54.5,30.10,ENE,63,0.0,0.0,94,0.00,,,0.00,Wunderground v.1.15,2013-09-24 03:05:00,
2013-09-23 23:10:00,56.1,54.4,30.10,ENE,63,0.0,0.0,94,0.00,,,0.00,Wunderground v.1.15,2013-09-24 03:10:00,
2013-09-23 23:15:00,56.0,54.3,30.10,ENE,63,0.0,0.0,94,0.00,,,0.00,Wunderground v.1.15,2013-09-24 03:15:00,
2013-09-23 23:20:00,55.9,54.5,30.10,ENE,63,0.0,0.0,95,0.00,,,0.00,Wunderground v.1.15,2013-09-24 03:20:00,
2013-09-23 23:25:00,55.8,54.4,30.10,ENE,63,0.0,0.0,95,0.00,,,0.00,Wunderground v.1.15,2013-09-24 03:25:00,
2013-09-23 23:30:00,55.8,54.4,30.10,ENE,63,0.0,0.0,95,0.00,,,0.00,Wunderground v.1.15,2013-09-24 03:30:00,
2013-09-23 23:40:00,56.0,54.6,30.11,ENE,63,0.0,0.0,95,0.00,,,0.00,Wunderground v.1.15,2013-09-24 03:40:00,
2013-09-23 23:45:00,56.1,54.7,30.10,ENE,63,0.0,0.0,95,0.00,,,0.00,Wunderground v.1.15,2013-09-24 03:45:00,
2013-09-23 23:50:00,56.0,54.6,30.10,ENE,63,0.0,0.0,95,0.00,,,0.00,Wunderground v.1.15,2013-09-24 03:50:00,
2013-09-23 23:55:00,55.8,54.4,30.10,ENE,63,0.0,0.0,95,0.00,,,0.00,Wunderground v.1.15,2013-09-24 03:55:00,